sensor_id;sensor_type;location;lat;lon;timestamp;pressure;altitude;pressure_sealevel;temperature;humidity
48668;BME280;34453;52.198;5.004;2023-07-31T00:02:20;101458.53;;;16.68;100.00
48668;BME280;34453;52.198;5.004;2023-07-31T00:04:45;101441.38;;;16.72;100.00
48668;BME280;34453;52.198;5.004;2023-07-31T00:07:11;101425.53;;;16.72;100.00
48668;BME280;34453;52.198;5.004;2023-07-31T00:09:36;101422.53;;;16.75;100.00
48668;BME280;34453;52.198;5.004;2023-07-31T00:12:02;101423.19;;;16.77;100.00
48668;BME280;34453;52.198;5.004;2023-07-31T00:14:28;101424.00;;;16.77;100.00
48668;BME280;34453;52.198;5.004;2023-07-31T00:16:53;101428.47;;;16.77;100.00
48668;BME280;34453;52.198;5.004;2023-07-31T00:19:19;101426.34;;;16.81;100.00
48668;BME280;34453;52.198;5.004;2023-07-31T00:21:44;101431.16;;;16.85;100.00
48668;BME280;34453;52.198;5.004;2023-07-31T00:24:10;101428.00;;;16.90;100.00
48668;BME280;34453;52.198;5.004;2023-07-31T00:26:35;101424.84;;;16.94;100.00
48668;BME280;34453;52.198;5.004;2023-07-31T00:29:01;101413.63;;;16.92;100.00
48668;BME280;34453;52.198;5.004;2023-07-31T00:31:26;101403.22;;;16.91;100.00
48668;BME280;34453;52.198;5.004;2023-07-31T00:33:52;101393.66;;;16.90;100.00
48668;BME280;34453;52.198;5.004;2023-07-31T00:36:17;101408.34;;;16.84;100.00
48668;BME280;34453;52.198;5.004;2023-07-31T00:38:43;101381.25;;;16.82;100.00
48668;BME280;34453;52.198;5.004;2023-07-31T00:41:09;101388.03;;;16.85;100.00
48668;BME280;34453;52.198;5.004;2023-07-31T00:43:34;101370.03;;;16.80;100.00
48668;BME280;34453;52.198;5.004;2023-07-31T00:46:00;101358.13;;;16.76;100.00
48668;BME280;34453;52.198;5.004;2023-07-31T00:48:25;101328.75;;;16.71;100.00
48668;BME280;34453;52.198;5.004;2023-07-31T00:50:51;101330.41;;;16.72;100.00
48668;BME280;34453;52.198;5.004;2023-07-31T00:53:17;101315.09;;;16.59;100.00
48668;BME280;34453;52.198;5.004;2023-07-31T00:55:43;101307.31;;;16.57;100.00
48668;BME280;34453;52.198;5.004;2023-07-31T00:58:09;101309.66;;;16.52;100.00
48668;BME280;34453;52.198;5.004;2023-07-31T01:00:35;101299.09;;;16.44;100.00
48668;BME280;34453;52.198;5.004;2023-07-31T01:03:00;101283.25;;;16.36;100.00
48668;BME280;34453;52.198;5.004;2023-07-31T01:08:42;101255.88;;;16.29;100.00
48668;BME280;34453;52.198;5.004;2023-07-31T01:11:19;101253.41;;;16.27;100.00
48668;BME280;34453;52.198;5.004;2023-07-31T01:13:46;101252.28;;;16.30;100.00
48668;BME280;34453;52.198;5.004;2023-07-31T01:16:12;101251.25;;;16.31;100.00
48668;BME280;34453;52.198;5.004;2023-07-31T01:18:37;101237.72;;;16.34;100.00
48668;BME280;34453;52.198;5.004;2023-07-31T01:27:25;101237.19;;;16.47;100.00
48668;BME280;34453;52.198;5.004;2023-07-31T01:32:24;101247.56;;;16.56;100.00
48668;BME280;34453;52.198;5.004;2023-07-31T01:34:51;101243.56;;;16.61;100.00
48668;BME280;34453;52.198;5.004;2023-07-31T01:37:17;101254.13;;;16.61;100.00
48668;BME280;34453;52.198;5.004;2023-07-31T01:39:43;101255.94;;;16.68;100.00
48668;BME280;34453;52.198;5.004;2023-07-31T01:42:08;101259.41;;;16.69;100.00
48668;BME280;34453;52.198;5.004;2023-07-31T01:44:34;101272.28;;;16.72;100.00
48668;BME280;34453;52.198;5.004;2023-07-31T01:46:59;101267.31;;;16.69;100.00
48668;BME280;34453;52.198;5.004;2023-07-31T01:49:25;101270.63;;;16.71;100.00
48668;BME280;34453;52.198;5.004;2023-07-31T01:51:51;101248.84;;;16.69;100.00
48668;BME280;34453;52.198;5.004;2023-07-31T01:54:16;101240.91;;;16.69;100.00
48668;BME280;34453;52.198;5.004;2023-07-31T01:56:42;101237.28;;;16.70;100.00
48668;BME280;34453;52.198;5.004;2023-07-31T01:59:07;101225.06;;;16.69;100.00
48668;BME280;34453;52.198;5.004;2023-07-31T02:01:33;101215.31;;;16.69;100.00
48668;BME280;34453;52.198;5.004;2023-07-31T02:03:58;101212.88;;;16.68;100.00
48668;BME280;34453;52.198;5.004;2023-07-31T02:06:23;101204.75;;;16.69;100.00
48668;BME280;34453;52.198;5.004;2023-07-31T02:08:49;101195.69;;;16.64;100.00
48668;BME280;34453;52.198;5.004;2023-07-31T02:11:14;101184.78;;;16.67;100.00
48668;BME280;34453;52.198;5.004;2023-07-31T02:13:40;101172.59;;;16.66;100.00
48668;BME280;34453;52.198;5.004;2023-07-31T02:16:05;101167.31;;;16.66;100.00
48668;BME280;34453;52.198;5.004;2023-07-31T02:18:31;101164.00;;;16.64;100.00
48668;BME280;34453;52.198;5.004;2023-07-31T02:20:56;101150.63;;;16.65;100.00
48668;BME280;34453;52.198;5.004;2023-07-31T02:23:21;101139.22;;;16.65;100.00
48668;BME280;34453;52.198;5.004;2023-07-31T02:25:47;101146.50;;;16.63;100.00
48668;BME280;34453;52.198;5.004;2023-07-31T02:28:12;101144.50;;;16.65;100.00
48668;BME280;34453;52.198;5.004;2023-07-31T02:30:38;101156.91;;;16.64;100.00
48668;BME280;34453;52.198;5.004;2023-07-31T02:33:04;101144.19;;;16.68;100.00
48668;BME280;34453;52.198;5.004;2023-07-31T02:35:30;101139.22;;;16.65;100.00
48668;BME280;34453;52.198;5.004;2023-07-31T02:37:56;101140.69;;;16.67;100.00
48668;BME280;34453;52.198;5.004;2023-07-31T02:40:21;101127.97;;;16.71;100.00
48668;BME280;34453;52.198;5.004;2023-07-31T02:42:47;101119.88;;;16.72;100.00
48668;BME280;34453;52.198;5.004;2023-07-31T02:45:12;101106.47;;;16.74;100.00
48668;BME280;34453;52.198;5.004;2023-07-31T02:47:38;101108.78;;;16.77;100.00
48668;BME280;34453;52.198;5.004;2023-07-31T02:50:04;101111.25;;;16.78;100.00
48668;BME280;34453;52.198;5.004;2023-07-31T02:52:30;101098.88;;;16.79;100.00
48668;BME280;34453;52.198;5.004;2023-07-31T02:54:55;101090.78;;;16.81;100.00
48668;BME280;34453;52.198;5.004;2023-07-31T02:57:20;101086.13;;;16.83;100.00
48668;BME280;34453;52.198;5.004;2023-07-31T02:59:46;101082.69;;;16.82;100.00
48668;BME280;34453;52.198;5.004;2023-07-31T03:02:11;101069.31;;;16.84;100.00
48668;BME280;34453;52.198;5.004;2023-07-31T03:04:38;101063.19;;;16.83;100.00
48668;BME280;34453;52.198;5.004;2023-07-31T03:07:04;101064.84;;;16.84;100.00
48668;BME280;34453;52.198;5.004;2023-07-31T03:09:29;101052.63;;;16.83;100.00
48668;BME280;34453;52.198;5.004;2023-07-31T03:11:55;101046.69;;;16.81;100.00
48668;BME280;34453;52.198;5.004;2023-07-31T03:14:20;101049.16;;;16.83;100.00
48668;BME280;34453;52.198;5.004;2023-07-31T03:16:46;101059.53;;;16.84;100.00
48668;BME280;34453;52.198;5.004;2023-07-31T03:19:11;101041.06;;;16.84;100.00
48668;BME280;34453;52.198;5.004;2023-07-31T03:21:36;101046.50;;;16.83;100.00
48668;BME280;34453;52.198;5.004;2023-07-31T03:24:02;101021.75;;;16.84;100.00
48668;BME280;34453;52.198;5.004;2023-07-31T03:26:27;101017.63;;;16.81;100.00
48668;BME280;34453;52.198;5.004;2023-07-31T03:28:55;101022.94;;;16.81;100.00
48668;BME280;34453;52.198;5.004;2023-07-31T03:31:20;101007.72;;;16.83;100.00
48668;BME280;34453;52.198;5.004;2023-07-31T03:33:45;101000.13;;;16.80;100.00
48668;BME280;34453;52.198;5.004;2023-07-31T03:36:11;101000.94;;;16.81;100.00
48668;BME280;34453;52.198;5.004;2023-07-31T03:38:36;100992.03;;;16.82;100.00
48668;BME280;34453;52.198;5.004;2023-07-31T03:41:02;100984.44;;;16.78;100.00
48668;BME280;34453;52.198;5.004;2023-07-31T03:43:27;100985.94;;;16.81;100.00
48668;BME280;34453;52.198;5.004;2023-07-31T03:45:53;100984.91;;;16.82;100.00
48668;BME280;34453;52.198;5.004;2023-07-31T03:48:18;100973.53;;;16.82;100.00
48668;BME280;34453;52.198;5.004;2023-07-31T03:50:44;100964.97;;;16.80;100.00
48668;BME280;34453;52.198;5.004;2023-07-31T03:53:09;100971.56;;;16.75;100.00
48668;BME280;34453;52.198;5.004;2023-07-31T03:55:34;100958.09;;;16.70;100.00
48668;BME280;34453;52.198;5.004;2023-07-31T03:58:00;100968.00;;;16.68;100.00
48668;BME280;34453;52.198;5.004;2023-07-31T04:00:26;100970.16;;;16.65;100.00
48668;BME280;34453;52.198;5.004;2023-07-31T04:02:52;100962.63;;;16.62;100.00
48668;BME280;34453;52.198;5.004;2023-07-31T04:05:17;100961.50;;;16.56;100.00
48668;BME280;34453;52.198;5.004;2023-07-31T04:07:43;100956.56;;;16.53;100.00
48668;BME280;34453;52.198;5.004;2023-07-31T04:10:08;100955.41;;;16.55;100.00
48668;BME280;34453;52.198;5.004;2023-07-31T04:12:34;100958.03;;;16.55;100.00
48668;BME280;34453;52.198;5.004;2023-07-31T04:14:59;100955.56;;;16.54;100.00
48668;BME280;34453;52.198;5.004;2023-07-31T04:17:25;100959.03;;;16.54;100.00
48668;BME280;34453;52.198;5.004;2023-07-31T04:19:50;100953.41;;;16.57;100.00
48668;BME280;34453;52.198;5.004;2023-07-31T04:22:16;100954.22;;;16.58;100.00
48668;BME280;34453;52.198;5.004;2023-07-31T04:24:41;100961.59;;;16.63;100.00
48668;BME280;34453;52.198;5.004;2023-07-31T04:27:06;100961.25;;;16.66;100.00
48668;BME280;34453;52.198;5.004;2023-07-31T04:29:32;100959.28;;;16.68;100.00
48668;BME280;34453;52.198;5.004;2023-07-31T04:31:57;100970.47;;;16.70;100.00
48668;BME280;34453;52.198;5.004;2023-07-31T04:34:23;100973.28;;;16.68;100.00
48668;BME280;34453;52.198;5.004;2023-07-31T04:36:48;100971.19;;;16.64;100.00
48668;BME280;34453;52.198;5.004;2023-07-31T04:39:13;100972.91;;;16.56;100.00
48668;BME280;34453;52.198;5.004;2023-07-31T04:41:39;100982.88;;;16.46;100.00
48668;BME280;34453;52.198;5.004;2023-07-31T04:44:04;100980.91;;;16.40;100.00
48668;BME280;34453;52.198;5.004;2023-07-31T04:46:30;100987.91;;;16.33;100.00
48668;BME280;34453;52.198;5.004;2023-07-31T04:48:56;100978.84;;;16.27;100.00
48668;BME280;34453;52.198;5.004;2023-07-31T04:51:21;100986.31;;;16.24;100.00
48668;BME280;34453;52.198;5.004;2023-07-31T04:53:48;100989.66;;;16.17;100.00
48668;BME280;34453;52.198;5.004;2023-07-31T04:56:13;100996.25;;;16.13;100.00
48668;BME280;34453;52.198;5.004;2023-07-31T04:58:40;101013.44;;;16.09;100.00
48668;BME280;34453;52.198;5.004;2023-07-31T05:01:06;101011.00;;;16.08;100.00
48668;BME280;34453;52.198;5.004;2023-07-31T05:03:31;101028.00;;;16.05;100.00
48668;BME280;34453;52.198;5.004;2023-07-31T05:05:57;101032.28;;;16.06;100.00
48668;BME280;34453;52.198;5.004;2023-07-31T05:08:23;101033.41;;;16.12;100.00
48668;BME280;34453;52.198;5.004;2023-07-31T05:10:50;101042.16;;;16.04;100.00
48668;BME280;34453;52.198;5.004;2023-07-31T05:13:15;101040.19;;;16.06;100.00
48668;BME280;34453;52.198;5.004;2023-07-31T05:15:41;101053.22;;;16.08;100.00
48668;BME280;34453;52.198;5.004;2023-07-31T05:18:06;101054.38;;;16.05;100.00
48668;BME280;34453;52.198;5.004;2023-07-31T05:20:32;101053.75;;;16.03;100.00
48668;BME280;34453;52.198;5.004;2023-07-31T05:22:57;101057.19;;;16.04;100.00
48668;BME280;34453;52.198;5.004;2023-07-31T05:25:22;101049.44;;;16.02;100.00
48668;BME280;34453;52.198;5.004;2023-07-31T05:27:48;101053.75;;;16.03;100.00
48668;BME280;34453;52.198;5.004;2023-07-31T05:30:13;101061.31;;;15.98;100.00
48668;BME280;34453;52.198;5.004;2023-07-31T05:32:39;101066.44;;;16.00;100.00
48668;BME280;34453;52.198;5.004;2023-07-31T05:35:05;101066.94;;;16.03;100.00
48668;BME280;34453;52.198;5.004;2023-07-31T05:37:30;101053.75;;;15.95;100.00
48668;BME280;34453;52.198;5.004;2023-07-31T05:39:56;101056.56;;;15.93;100.00
48668;BME280;34453;52.198;5.004;2023-07-31T05:42:21;101062.31;;;15.97;100.00
48668;BME280;34453;52.198;5.004;2023-07-31T05:44:47;101052.44;;;15.91;100.00
48668;BME280;34453;52.198;5.004;2023-07-31T05:47:12;101053.09;;;15.93;100.00
48668;BME280;34453;52.198;5.004;2023-07-31T05:49:38;101073.84;;;15.96;100.00
48668;BME280;34453;52.198;5.004;2023-07-31T05:52:04;101069.94;;;15.92;100.00
48668;BME280;34453;52.198;5.004;2023-07-31T05:54:29;101083.44;;;15.97;100.00
48668;BME280;34453;52.198;5.004;2023-07-31T05:56:55;101079.97;;;15.97;100.00
48668;BME280;34453;52.198;5.004;2023-07-31T05:59:20;101085.56;;;16.02;100.00
48668;BME280;34453;52.198;5.004;2023-07-31T06:01:46;101094.50;;;15.92;100.00
48668;BME280;34453;52.198;5.004;2023-07-31T06:04:11;101097.16;;;15.92;100.00
48668;BME280;34453;52.198;5.004;2023-07-31T06:06:37;101098.78;;;15.93;100.00
48668;BME280;34453;52.198;5.004;2023-07-31T06:09:02;101104.25;;;15.92;100.00
48668;BME280;34453;52.198;5.004;2023-07-31T06:11:29;101092.97;;;15.98;100.00
48668;BME280;34453;52.198;5.004;2023-07-31T06:13:54;101104.19;;;16.00;100.00
48668;BME280;34453;52.198;5.004;2023-07-31T06:16:19;101109.16;;;16.03;100.00
48668;BME280;34453;52.198;5.004;2023-07-31T06:18:46;101108.44;;;16.09;100.00
48668;BME280;34453;52.198;5.004;2023-07-31T06:21:12;101117.72;;;16.05;100.00
48668;BME280;34453;52.198;5.004;2023-07-31T06:23:38;101142.94;;;16.08;100.00
48668;BME280;34453;52.198;5.004;2023-07-31T06:26:03;101121.66;;;16.09;100.00
48668;BME280;34453;52.198;5.004;2023-07-31T06:28:29;101131.69;;;16.14;100.00
48668;BME280;34453;52.198;5.004;2023-07-31T06:30:55;101123.28;;;16.19;100.00
48668;BME280;34453;52.198;5.004;2023-07-31T06:33:21;101129.19;;;16.21;100.00
48668;BME280;34453;52.198;5.004;2023-07-31T06:35:46;101114.84;;;16.23;100.00
48668;BME280;34453;52.198;5.004;2023-07-31T06:38:12;101124.09;;;16.19;100.00
48668;BME280;34453;52.198;5.004;2023-07-31T06:40:37;101133.97;;;16.25;100.00
48668;BME280;34453;52.198;5.004;2023-07-31T06:43:03;101129.16;;;16.29;100.00
48668;BME280;34453;52.198;5.004;2023-07-31T06:45:34;101124.25;;;16.26;100.00
48668;BME280;34453;52.198;5.004;2023-07-31T06:48:01;101121.53;;;16.34;100.00
48668;BME280;34453;52.198;5.004;2023-07-31T06:50:28;101115.28;;;16.35;100.00
48668;BME280;34453;52.198;5.004;2023-07-31T06:52:53;101124.19;;;16.34;100.00
48668;BME280;34453;52.198;5.004;2023-07-31T06:55:20;101112.34;;;16.30;100.00
48668;BME280;34453;52.198;5.004;2023-07-31T06:57:47;101115.25;;;16.43;100.00
48668;BME280;34453;52.198;5.004;2023-07-31T07:00:13;101113.28;;;16.45;100.00
48668;BME280;34453;52.198;5.004;2023-07-31T07:02:39;101118.03;;;16.50;100.00
48668;BME280;34453;52.198;5.004;2023-07-31T07:05:06;101118.03;;;16.50;100.00
48668;BME280;34453;52.198;5.004;2023-07-31T07:07:32;101123.13;;;16.51;100.00
48668;BME280;34453;52.198;5.004;2023-07-31T07:09:57;101124.28;;;16.49;100.00
48668;BME280;34453;52.198;5.004;2023-07-31T07:12:25;101120.16;;;16.54;100.00
48668;BME280;34453;52.198;5.004;2023-07-31T07:14:50;101113.53;;;16.58;100.00
48668;BME280;34453;52.198;5.004;2023-07-31T07:17:18;101112.34;;;16.61;100.00
48668;BME280;34453;52.198;5.004;2023-07-31T07:19:44;101118.94;;;16.65;100.00
48668;BME280;34453;52.198;5.004;2023-07-31T07:22:09;101122.56;;;16.64;100.00
48668;BME280;34453;52.198;5.004;2023-07-31T07:24:35;101117.56;;;16.69;100.00
48668;BME280;34453;52.198;5.004;2023-07-31T07:27:00;101118.88;;;16.73;100.00
48668;BME280;34453;52.198;5.004;2023-07-31T07:29:26;101112.78;;;16.73;100.00
48668;BME280;34453;52.198;5.004;2023-07-31T07:31:51;101113.78;;;16.72;100.00
48668;BME280;34453;52.198;5.004;2023-07-31T07:34:17;101127.59;;;16.74;100.00
48668;BME280;34453;52.198;5.004;2023-07-31T07:36:42;101118.09;;;16.65;100.00
48668;BME280;34453;52.198;5.004;2023-07-31T07:39:10;101128.13;;;16.69;100.00
48668;BME280;34453;52.198;5.004;2023-07-31T07:41:35;101135.13;;;16.62;100.00
48668;BME280;34453;52.198;5.004;2023-07-31T07:44:01;101130.97;;;16.68;100.00
48668;BME280;34453;52.198;5.004;2023-07-31T07:46:26;101139.72;;;16.68;100.00
48668;BME280;34453;52.198;5.004;2023-07-31T07:48:52;101132.75;;;16.67;100.00
48668;BME280;34453;52.198;5.004;2023-07-31T07:51:17;101141.81;;;16.73;100.00
48668;BME280;34453;52.198;5.004;2023-07-31T07:53:42;101139.72;;;16.68;100.00
48668;BME280;34453;52.198;5.004;2023-07-31T07:56:08;101138.53;;;16.71;100.00
48668;BME280;34453;52.198;5.004;2023-07-31T07:58:33;101142.84;;;16.72;100.00
48668;BME280;34453;52.198;5.004;2023-07-31T08:00:59;101143.47;;;16.74;100.00
48668;BME280;34453;52.198;5.004;2023-07-31T08:03:24;101140.81;;;16.74;100.00
48668;BME280;34453;52.198;5.004;2023-07-31T08:05:49;101124.81;;;16.75;100.00
48668;BME280;34453;52.198;5.004;2023-07-31T08:08:15;101141.09;;;16.87;100.00
48668;BME280;34453;52.198;5.004;2023-07-31T08:10:42;101141.41;;;16.92;100.00
48668;BME280;34453;52.198;5.004;2023-07-31T08:13:07;101143.41;;;16.90;100.00
48668;BME280;34453;52.198;5.004;2023-07-31T08:15:33;101131.00;;;16.91;100.00
48668;BME280;34453;52.198;5.004;2023-07-31T08:17:58;101145.66;;;17.02;100.00
48668;BME280;34453;52.198;5.004;2023-07-31T08:20:23;101145.66;;;17.02;100.00
48668;BME280;34453;52.198;5.004;2023-07-31T08:22:49;101131.41;;;17.03;100.00
48668;BME280;34453;52.198;5.004;2023-07-31T08:25:14;101134.38;;;17.08;100.00
48668;BME280;34453;52.198;5.004;2023-07-31T08:27:43;101137.78;;;17.16;100.00
48668;BME280;34453;52.198;5.004;2023-07-31T08:30:10;101140.06;;;17.19;100.00
48668;BME280;34453;52.198;5.004;2023-07-31T08:32:36;101138.41;;;17.18;100.00
48668;BME280;34453;52.198;5.004;2023-07-31T08:35:01;101136.75;;;17.17;100.00
48668;BME280;34453;52.198;5.004;2023-07-31T08:37:27;101130.03;;;17.15;100.00
48668;BME280;34453;52.198;5.004;2023-07-31T08:39:53;101131.31;;;17.19;100.00
48668;BME280;34453;52.198;5.004;2023-07-31T08:42:20;101126.03;;;17.19;100.00
48668;BME280;34453;52.198;5.004;2023-07-31T08:44:46;101142.00;;;17.26;100.00
48668;BME280;34453;52.198;5.004;2023-07-31T08:47:12;101139.81;;;17.29;100.00
48668;BME280;34453;52.198;5.004;2023-07-31T08:49:38;101129.53;;;17.34;100.00
48668;BME280;34453;52.198;5.004;2023-07-31T08:52:06;101126.25;;;17.32;100.00
48668;BME280;34453;52.198;5.004;2023-07-31T08:54:31;101124.91;;;17.36;100.00
48668;BME280;34453;52.198;5.004;2023-07-31T08:56:58;101130.53;;;17.33;100.00
48668;BME280;34453;52.198;5.004;2023-07-31T08:59:27;101125.59;;;17.30;100.00
48668;BME280;34453;52.198;5.004;2023-07-31T09:01:55;101133.81;;;17.35;100.00
48668;BME280;34453;52.198;5.004;2023-07-31T09:04:23;101128.16;;;17.38;100.00
48668;BME280;34453;52.198;5.004;2023-07-31T09:06:49;101132.09;;;17.43;100.00
48668;BME280;34453;52.198;5.004;2023-07-31T09:09:16;101141.31;;;17.47;100.00
48668;BME280;34453;52.198;5.004;2023-07-31T09:11:41;101133.16;;;17.56;100.00
48668;BME280;34453;52.198;5.004;2023-07-31T09:14:08;101137.78;;;17.69;100.00
48668;BME280;34453;52.198;5.004;2023-07-31T09:16:34;101124.56;;;17.69;100.00
48668;BME280;34453;52.198;5.004;2023-07-31T09:19:00;101137.06;;;17.75;100.00
48668;BME280;34453;52.198;5.004;2023-07-31T09:21:28;101131.16;;;17.73;100.00
48668;BME280;34453;52.198;5.004;2023-07-31T09:23:53;101118.72;;;17.74;100.00
48668;BME280;34453;52.198;5.004;2023-07-31T09:28:57;101113.97;;;17.69;100.00
48668;BME280;34453;52.198;5.004;2023-07-31T09:31:52;101112.34;;;17.68;100.00
48668;BME280;34453;52.198;5.004;2023-07-31T09:34:18;101094.00;;;17.67;100.00
48668;BME280;34453;52.198;5.004;2023-07-31T09:36:45;101102.50;;;17.77;100.00
48668;BME280;34453;52.198;5.004;2023-07-31T09:39:13;101102.03;;;17.73;100.00
48668;BME280;34453;52.198;5.004;2023-07-31T09:41:41;101098.41;;;17.74;100.00
48668;BME280;34453;52.198;5.004;2023-07-31T09:44:07;101095.13;;;17.72;100.00
48668;BME280;34453;52.198;5.004;2023-07-31T09:46:35;101096.31;;;17.70;100.00
48668;BME280;34453;52.198;5.004;2023-07-31T09:49:11;101100.22;;;17.74;100.00
48668;BME280;34453;52.198;5.004;2023-07-31T09:51:38;101085.09;;;17.83;100.00
48668;BME280;34453;52.198;5.004;2023-07-31T09:54:14;101076.44;;;17.89;100.00
48668;BME280;34453;52.198;5.004;2023-07-31T09:56:45;101059.19;;;17.93;100.00
48668;BME280;34453;52.198;5.004;2023-07-31T09:59:13;101045.69;;;17.88;100.00
48668;BME280;34453;52.198;5.004;2023-07-31T10:01:40;101042.66;;;17.91;100.00
48668;BME280;34453;52.198;5.004;2023-07-31T10:04:08;101026.69;;;17.99;100.00
48668;BME280;34453;52.198;5.004;2023-07-31T10:06:34;101009.34;;;17.96;100.00
48668;BME280;34453;52.198;5.004;2023-07-31T10:09:02;101002.56;;;17.94;100.00
48668;BME280;34453;52.198;5.004;2023-07-31T10:11:30;100975.13;;;17.95;100.00
48668;BME280;34453;52.198;5.004;2023-07-31T10:13:56;100986.69;;;17.94;100.00
48668;BME280;34453;52.198;5.004;2023-07-31T10:16:22;100965.53;;;17.94;100.00
48668;BME280;34453;52.198;5.004;2023-07-31T10:18:49;100969.19;;;17.93;100.00
48668;BME280;34453;52.198;5.004;2023-07-31T10:21:16;100956.94;;;17.92;100.00
48668;BME280;34453;52.198;5.004;2023-07-31T10:23:42;100948.03;;;17.93;100.00
48668;BME280;34453;52.198;5.004;2023-07-31T10:26:10;100949.53;;;18.02;100.00
48668;BME280;34453;52.198;5.004;2023-07-31T10:28:37;100949.22;;;18.12;100.00
48668;BME280;34453;52.198;5.004;2023-07-31T10:31:04;100939.47;;;18.12;100.00
48668;BME280;34453;52.198;5.004;2023-07-31T10:33:30;100917.34;;;18.20;100.00
48668;BME280;34453;52.198;5.004;2023-07-31T10:36:17;100898.97;;;18.18;100.00
48668;BME280;34453;52.198;5.004;2023-07-31T10:38:43;100895.22;;;18.06;100.00
48668;BME280;34453;52.198;5.004;2023-07-31T10:41:09;100887.03;;;18.01;100.00
48668;BME280;34453;52.198;5.004;2023-07-31T10:43:36;100888.25;;;18.05;100.00
48668;BME280;34453;52.198;5.004;2023-07-31T10:46:06;100888.19;;;17.98;100.00
48668;BME280;34453;52.198;5.004;2023-07-31T10:48:33;100877.44;;;18.00;100.00
48668;BME280;34453;52.198;5.004;2023-07-31T10:50:59;100876.44;;;18.01;100.00
48668;BME280;34453;52.198;5.004;2023-07-31T10:53:32;100876.06;;;18.04;100.00
48668;BME280;34453;52.198;5.004;2023-07-31T10:56:02;100872.59;;;18.04;100.00
48668;BME280;34453;52.198;5.004;2023-07-31T10:58:28;100870.56;;;18.06;100.00
48668;BME280;34453;52.198;5.004;2023-07-31T11:00:58;100872.25;;;18.13;100.00
48668;BME280;34453;52.198;5.004;2023-07-31T11:03:41;100877.38;;;18.15;100.00
48668;BME280;34453;52.198;5.004;2023-07-31T11:06:07;100870.94;;;18.24;100.00
48668;BME280;34453;52.198;5.004;2023-07-31T11:08:35;100850.19;;;18.28;100.00
48668;BME280;34453;52.198;5.004;2023-07-31T11:13:30;100831.50;;;18.36;100.00
48668;BME280;34453;52.198;5.004;2023-07-31T11:15:55;100831.94;;;18.39;100.00
48668;BME280;34453;52.198;5.004;2023-07-31T11:18:21;100817.72;;;18.47;100.00
48668;BME280;34453;52.198;5.004;2023-07-31T11:20:47;100808.47;;;18.64;100.00
48668;BME280;34453;52.198;5.004;2023-07-31T11:23:12;100797.09;;;18.71;100.00
48668;BME280;34453;52.198;5.004;2023-07-31T11:25:40;100802.97;;;18.66;100.00
48668;BME280;34453;52.198;5.004;2023-07-31T11:28:09;100796.00;;;18.58;100.00
48668;BME280;34453;52.198;5.004;2023-07-31T11:30:35;100780.31;;;18.57;100.00
48668;BME280;34453;52.198;5.004;2023-07-31T11:33:02;100787.00;;;18.53;100.00
48668;BME280;34453;52.198;5.004;2023-07-31T11:35:30;100786.16;;;18.46;100.00
48668;BME280;34453;52.198;5.004;2023-07-31T11:37:55;100771.25;;;18.44;100.00
48668;BME280;34453;52.198;5.004;2023-07-31T11:40:21;100776.75;;;18.43;100.00
48668;BME280;34453;52.198;5.004;2023-07-31T11:42:46;100774.13;;;18.50;100.00
48668;BME280;34453;52.198;5.004;2023-07-31T11:45:12;100788.22;;;18.50;100.00
48668;BME280;34453;52.198;5.004;2023-07-31T11:47:38;100769.50;;;18.58;100.00
48668;BME280;34453;52.198;5.004;2023-07-31T11:50:05;100764.00;;;18.60;100.00
48668;BME280;34453;52.198;5.004;2023-07-31T11:52:34;100776.91;;;18.70;100.00
48668;BME280;34453;52.198;5.004;2023-07-31T11:55:01;100768.94;;;18.70;100.00
48668;BME280;34453;52.198;5.004;2023-07-31T11:57:27;100775.97;;;18.77;100.00
48668;BME280;34453;52.198;5.004;2023-07-31T11:59:53;100758.84;;;18.80;100.00
48668;BME280;34453;52.198;5.004;2023-07-31T12:02:20;100771.31;;;18.86;100.00
48668;BME280;34453;52.198;5.004;2023-07-31T12:04:47;100772.16;;;18.93;100.00
48668;BME280;34453;52.198;5.004;2023-07-31T12:07:13;100762.97;;;18.89;100.00
48668;BME280;34453;52.198;5.004;2023-07-31T12:09:51;100764.56;;;18.83;100.00
48668;BME280;34453;52.198;5.004;2023-07-31T12:12:23;100754.75;;;18.77;100.00
48668;BME280;34453;52.198;5.004;2023-07-31T12:14:48;100761.69;;;18.78;100.00
48668;BME280;34453;52.198;5.004;2023-07-31T12:17:18;100762.03;;;18.69;100.00
48668;BME280;34453;52.198;5.004;2023-07-31T12:19:44;100743.06;;;18.72;100.00
48668;BME280;34453;52.198;5.004;2023-07-31T12:22:16;100730.75;;;18.86;100.00
48668;BME280;34453;52.198;5.004;2023-07-31T12:24:44;100714.03;;;18.92;100.00
48668;BME280;34453;52.198;5.004;2023-07-31T12:27:14;100710.78;;;18.96;100.00
48668;BME280;34453;52.198;5.004;2023-07-31T12:29:42;100712.84;;;18.94;100.00
48668;BME280;34453;52.198;5.004;2023-07-31T12:32:20;100717.13;;;19.02;100.00
48668;BME280;34453;52.198;5.004;2023-07-31T12:34:45;100708.34;;;18.95;100.00
48668;BME280;34453;52.198;5.004;2023-07-31T12:37:11;100701.63;;;18.92;100.00
48668;BME280;34453;52.198;5.004;2023-07-31T12:39:37;100701.38;;;18.87;100.00
48668;BME280;34453;52.198;5.004;2023-07-31T12:42:02;100703.22;;;18.87;100.00
48668;BME280;34453;52.198;5.004;2023-07-31T12:44:28;100706.91;;;18.86;100.00
48668;BME280;34453;52.198;5.004;2023-07-31T12:46:53;100697.47;;;18.83;100.00
48668;BME280;34453;52.198;5.004;2023-07-31T12:49:19;100692.81;;;18.85;100.00
48668;BME280;34453;52.198;5.004;2023-07-31T12:51:44;100690.00;;;19.00;100.00
48668;BME280;34453;52.198;5.004;2023-07-31T12:54:10;100687.38;;;19.20;100.00